sensor_id;sensor_type;location;lat;lon;timestamp;P1;durP1;ratioP1;P2;durP2;ratioP2
73980;SDS011;62348;51.412;5.436;2023-11-21T00:01:25;16.33;;;11.02;;
73980;SDS011;62348;51.412;5.436;2023-11-21T00:03:51;17.05;;;11.45;;
73980;SDS011;62348;51.412;5.436;2023-11-21T00:06:19;15.48;;;11.95;;
73980;SDS011;62348;51.412;5.436;2023-11-21T00:08:45;16.70;;;12.20;;
73980;SDS011;62348;51.412;5.436;2023-11-21T00:11:10;16.58;;;11.77;;
73980;SDS011;62348;51.412;5.436;2023-11-21T00:13:36;16.02;;;11.13;;
73980;SDS011;62348;51.412;5.436;2023-11-21T00:16:02;17.65;;;11.98;;
73980;SDS011;62348;51.412;5.436;2023-11-21T00:18:27;18.13;;;12.23;;
73980;SDS011;62348;51.412;5.436;2023-11-21T00:20:53;19.00;;;11.88;;
73980;SDS011;62348;51.412;5.436;2023-11-21T00:23:18;16.85;;;12.95;;
73980;SDS011;62348;51.412;5.436;2023-11-21T00:25:43;17.70;;;11.27;;
73980;SDS011;62348;51.412;5.436;2023-11-21T00:28:09;19.45;;;12.70;;
73980;SDS011;62348;51.412;5.436;2023-11-21T00:30:34;17.13;;;12.05;;
73980;SDS011;62348;51.412;5.436;2023-11-21T00:33:00;17.23;;;12.35;;
73980;SDS011;62348;51.412;5.436;2023-11-21T00:35:25;17.60;;;11.55;;
73980;SDS011;62348;51.412;5.436;2023-11-21T00:37:51;17.48;;;12.23;;
73980;SDS011;62348;51.412;5.436;2023-11-21T00:40:17;14.85;;;11.02;;
73980;SDS011;62348;51.412;5.436;2023-11-21T00:42:46;14.32;;;11.20;;
73980;SDS011;62348;51.412;5.436;2023-11-21T00:45:11;16.33;;;10.70;;
73980;SDS011;62348;51.412;5.436;2023-11-21T00:47:37;15.70;;;11.10;;
73980;SDS011;62348;51.412;5.436;2023-11-21T00:50:03;13.18;;;10.40;;
73980;SDS011;62348;51.412;5.436;2023-11-21T00:52:31;13.85;;;10.80;;
73980;SDS011;62348;51.412;5.436;2023-11-21T00:54:56;15.52;;;11.07;;
73980;SDS011;62348;51.412;5.436;2023-11-21T00:57:25;14.38;;;11.73;;
73980;SDS011;62348;51.412;5.436;2023-11-21T00:59:51;16.30;;;11.60;;
73980;SDS011;62348;51.412;5.436;2023-11-21T01:02:16;13.82;;;9.73;;
73980;SDS011;62348;51.412;5.436;2023-11-21T01:04:41;13.18;;;10.10;;
73980;SDS011;62348;51.412;5.436;2023-11-21T01:07:07;14.00;;;10.68;;
73980;SDS011;62348;51.412;5.436;2023-11-21T01:09:32;16.33;;;11.40;;
73980;SDS011;62348;51.412;5.436;2023-11-21T01:11:58;14.55;;;10.57;;
73980;SDS011;62348;51.412;5.436;2023-11-21T01:14:24;14.32;;;10.52;;
73980;SDS011;62348;51.412;5.436;2023-11-21T01:16:52;15.20;;;11.63;;
73980;SDS011;62348;51.412;5.436;2023-11-21T01:19:18;15.75;;;10.35;;
73980;SDS011;62348;51.412;5.436;2023-11-21T01:21:43;16.13;;;10.90;;
73980;SDS011;62348;51.412;5.436;2023-11-21T01:24:08;14.23;;;11.32;;
73980;SDS011;62348;51.412;5.436;2023-11-21T01:26:34;13.85;;;10.93;;
73980;SDS011;62348;51.412;5.436;2023-11-21T01:28:59;13.23;;;10.13;;
73980;SDS011;62348;51.412;5.436;2023-11-21T01:31:25;18.52;;;11.38;;
73980;SDS011;62348;51.412;5.436;2023-11-21T01:33:54;13.13;;;10.65;;
73980;SDS011;62348;51.412;5.436;2023-11-21T01:36:20;13.18;;;10.15;;
73980;SDS011;62348;51.412;5.436;2023-11-21T01:38:46;13.40;;;10.30;;
73980;SDS011;62348;51.412;5.436;2023-11-21T01:41:14;13.57;;;10.82;;
73980;SDS011;62348;51.412;5.436;2023-11-21T01:43:40;13.07;;;10.32;;
73980;SDS011;62348;51.412;5.436;2023-11-21T01:46:06;17.63;;;10.63;;
73980;SDS011;62348;51.412;5.436;2023-11-21T01:48:31;14.65;;;10.80;;
73980;SDS011;62348;51.412;5.436;2023-11-21T01:50:58;14.77;;;10.45;;
73980;SDS011;62348;51.412;5.436;2023-11-21T01:53:27;16.40;;;10.80;;
73980;SDS011;62348;51.412;5.436;2023-11-21T01:55:53;17.63;;;10.27;;
73980;SDS011;62348;51.412;5.436;2023-11-21T01:58:20;17.13;;;11.32;;
73980;SDS011;62348;51.412;5.436;2023-11-21T02:00:46;15.85;;;11.05;;
73980;SDS011;62348;51.412;5.436;2023-11-21T02:03:14;15.05;;;11.13;;
73980;SDS011;62348;51.412;5.436;2023-11-21T02:05:39;25.63;;;12.65;;
73980;SDS011;62348;51.412;5.436;2023-11-21T02:08:05;20.88;;;12.48;;
73980;SDS011;62348;51.412;5.436;2023-11-21T02:10:30;21.58;;;13.27;;
73980;SDS011;62348;51.412;5.436;2023-11-21T02:12:57;25.63;;;13.50;;
73980;SDS011;62348;51.412;5.436;2023-11-21T02:15:23;27.85;;;15.45;;
73980;SDS011;62348;51.412;5.436;2023-11-21T02:17:52;37.95;;;13.95;;
73980;SDS011;62348;51.412;5.436;2023-11-21T02:20:18;41.42;;;15.82;;
73980;SDS011;62348;51.412;5.436;2023-11-21T02:22:54;28.90;;;16.40;;
73980;SDS011;62348;51.412;5.436;2023-11-21T02:25:24;37.40;;;18.40;;
73980;SDS011;62348;51.412;5.436;2023-11-21T02:27:51;36.92;;;16.90;;
73980;SDS011;62348;51.412;5.436;2023-11-21T02:30:16;31.75;;;16.17;;
73980;SDS011;62348;51.412;5.436;2023-11-21T02:32:42;34.47;;;17.98;;
73980;SDS011;62348;51.412;5.436;2023-11-21T02:35:08;34.88;;;18.30;;
73980;SDS011;62348;51.412;5.436;2023-11-21T02:37:34;35.40;;;17.10;;
73980;SDS011;62348;51.412;5.436;2023-11-21T02:40:00;37.92;;;17.95;;
73980;SDS011;62348;51.412;5.436;2023-11-21T02:42:29;37.90;;;17.95;;
73980;SDS011;62348;51.412;5.436;2023-11-21T02:44:54;28.65;;;16.50;;
73980;SDS011;62348;51.412;5.436;2023-11-21T02:47:20;38.72;;;18.35;;
73980;SDS011;62348;51.412;5.436;2023-11-21T02:49:45;39.22;;;17.95;;
73980;SDS011;62348;51.412;5.436;2023-11-21T02:52:10;35.85;;;17.17;;
73980;SDS011;62348;51.412;5.436;2023-11-21T02:54:36;41.08;;;17.20;;
73980;SDS011;62348;51.412;5.436;2023-11-21T02:57:01;29.27;;;17.27;;
73980;SDS011;62348;51.412;5.436;2023-11-21T02:59:27;32.45;;;17.90;;
73980;SDS011;62348;51.412;5.436;2023-11-21T03:01:53;33.80;;;18.05;;
73980;SDS011;62348;51.412;5.436;2023-11-21T03:04:18;40.65;;;18.45;;
73980;SDS011;62348;51.412;5.436;2023-11-21T03:06:44;33.75;;;18.92;;
73980;SDS011;62348;51.412;5.436;2023-11-21T03:09:10;36.63;;;18.73;;
73980;SDS011;62348;51.412;5.436;2023-11-21T03:11:37;44.85;;;18.45;;
73980;SDS011;62348;51.412;5.436;2023-11-21T03:14:03;38.15;;;18.40;;
73980;SDS011;62348;51.412;5.436;2023-11-21T03:16:28;34.63;;;17.33;;
73980;SDS011;62348;51.412;5.436;2023-11-21T03:18:54;30.83;;;16.85;;
73980;SDS011;62348;51.412;5.436;2023-11-21T03:21:19;38.13;;;18.73;;
73980;SDS011;62348;51.412;5.436;2023-11-21T03:23:45;32.83;;;16.45;;
73980;SDS011;62348;51.412;5.436;2023-11-21T03:26:13;45.63;;;17.15;;
73980;SDS011;62348;51.412;5.436;2023-11-21T03:28:39;22.15;;;16.55;;
73980;SDS011;62348;51.412;5.436;2023-11-21T03:31:04;32.25;;;17.42;;
73980;SDS011;62348;51.412;5.436;2023-11-21T03:33:31;28.30;;;16.92;;
73980;SDS011;62348;51.412;5.436;2023-11-21T03:35:57;36.00;;;18.27;;
73980;SDS011;62348;51.412;5.436;2023-11-21T03:38:23;38.67;;;16.67;;
73980;SDS011;62348;51.412;5.436;2023-11-21T03:40:48;35.05;;;17.35;;
73980;SDS011;62348;51.412;5.436;2023-11-21T03:43:14;35.05;;;16.38;;
73980;SDS011;62348;51.412;5.436;2023-11-21T03:45:39;41.70;;;17.38;;
73980;SDS011;62348;51.412;5.436;2023-11-21T03:48:06;48.45;;;17.20;;
73980;SDS011;62348;51.412;5.436;2023-11-21T03:50:31;31.92;;;17.05;;
73980;SDS011;62348;51.412;5.436;2023-11-21T03:52:57;39.42;;;15.68;;
73980;SDS011;62348;51.412;5.436;2023-11-21T03:55:22;25.70;;;15.77;;
73980;SDS011;62348;51.412;5.436;2023-11-21T03:57:51;28.92;;;15.27;;
73980;SDS011;62348;51.412;5.436;2023-11-21T04:00:17;25.73;;;15.38;;
73980;SDS011;62348;51.412;5.436;2023-11-21T04:02:45;27.70;;;14.98;;
73980;SDS011;62348;51.412;5.436;2023-11-21T04:05:10;41.88;;;16.70;;
73980;SDS011;62348;51.412;5.436;2023-11-21T04:07:36;27.75;;;15.52;;
73980;SDS011;62348;51.412;5.436;2023-11-21T04:10:03;22.50;;;16.10;;
73980;SDS011;62348;51.412;5.436;2023-11-21T04:12:33;27.92;;;16.42;;
73980;SDS011;62348;51.412;5.436;2023-11-21T04:15:00;28.63;;;15.93;;
73980;SDS011;62348;51.412;5.436;2023-11-21T04:17:25;41.50;;;15.63;;
73980;SDS011;62348;51.412;5.436;2023-11-21T04:19:50;19.65;;;15.18;;
73980;SDS011;62348;51.412;5.436;2023-11-21T04:22:16;32.75;;;14.90;;
73980;SDS011;62348;51.412;5.436;2023-11-21T04:24:41;27.48;;;14.18;;
73980;SDS011;62348;51.412;5.436;2023-11-21T04:27:06;27.10;;;13.90;;
73980;SDS011;62348;51.412;5.436;2023-11-21T04:29:32;32.88;;;14.40;;
73980;SDS011;62348;51.412;5.436;2023-11-21T04:31:58;34.50;;;15.45;;
73980;SDS011;62348;51.412;5.436;2023-11-21T04:34:23;25.88;;;14.48;;
73980;SDS011;62348;51.412;5.436;2023-11-21T04:36:49;21.27;;;15.25;;
73980;SDS011;62348;51.412;5.436;2023-11-21T04:39:14;36.67;;;15.90;;
73980;SDS011;62348;51.412;5.436;2023-11-21T04:41:40;29.95;;;15.45;;
73980;SDS011;62348;51.412;5.436;2023-11-21T04:44:05;24.17;;;14.23;;
73980;SDS011;62348;51.412;5.436;2023-11-21T04:46:31;27.23;;;14.95;;
73980;SDS011;62348;51.412;5.436;2023-11-21T04:48:57;33.67;;;14.90;;
73980;SDS011;62348;51.412;5.436;2023-11-21T04:51:23;22.98;;;15.50;;
73980;SDS011;62348;51.412;5.436;2023-11-21T04:53:49;23.63;;;14.50;;
73980;SDS011;62348;51.412;5.436;2023-11-21T04:56:14;23.05;;;16.20;;
73980;SDS011;62348;51.412;5.436;2023-11-21T04:58:41;25.90;;;15.88;;
73980;SDS011;62348;51.412;5.436;2023-11-21T05:01:09;20.80;;;14.93;;
73980;SDS011;62348;51.412;5.436;2023-11-21T05:03:35;21.42;;;15.60;;
73980;SDS011;62348;51.412;5.436;2023-11-21T05:06:00;19.75;;;15.45;;
73980;SDS011;62348;51.412;5.436;2023-11-21T05:08:25;22.83;;;15.38;;
73980;SDS011;62348;51.412;5.436;2023-11-21T05:10:51;20.35;;;15.32;;
73980;SDS011;62348;51.412;5.436;2023-11-21T05:13:17;21.77;;;15.18;;
73980;SDS011;62348;51.412;5.436;2023-11-21T05:15:44;23.08;;;15.48;;
73980;SDS011;62348;51.412;5.436;2023-11-21T05:18:09;21.02;;;14.98;;
73980;SDS011;62348;51.412;5.436;2023-11-21T05:20:35;18.20;;;13.55;;
73980;SDS011;62348;51.412;5.436;2023-11-21T05:23:01;18.13;;;14.48;;
73980;SDS011;62348;51.412;5.436;2023-11-21T05:25:26;18.70;;;14.30;;
73980;SDS011;62348;51.412;5.436;2023-11-21T05:27:52;17.23;;;13.88;;
73980;SDS011;62348;51.412;5.436;2023-11-21T05:30:19;17.75;;;14.55;;
73980;SDS011;62348;51.412;5.436;2023-11-21T05:32:46;20.83;;;15.52;;
73980;SDS011;62348;51.412;5.436;2023-11-21T05:35:12;17.73;;;13.90;;
73980;SDS011;62348;51.412;5.436;2023-11-21T05:37:40;18.23;;;13.80;;
73980;SDS011;62348;51.412;5.436;2023-11-21T05:40:07;17.95;;;14.25;;
73980;SDS011;62348;51.412;5.436;2023-11-21T05:42:33;25.25;;;14.85;;
73980;SDS011;62348;51.412;5.436;2023-11-21T05:45:00;17.65;;;13.68;;
73980;SDS011;62348;51.412;5.436;2023-11-21T05:47:35;16.33;;;13.60;;
73980;SDS011;62348;51.412;5.436;2023-11-21T05:50:02;19.80;;;14.65;;
73980;SDS011;62348;51.412;5.436;2023-11-21T05:52:29;17.38;;;13.70;;
73980;SDS011;62348;51.412;5.436;2023-11-21T05:54:54;18.25;;;14.75;;
73980;SDS011;62348;51.412;5.436;2023-11-21T05:57:19;18.05;;;12.82;;
73980;SDS011;62348;51.412;5.436;2023-11-21T05:59:45;17.15;;;14.15;;
73980;SDS011;62348;51.412;5.436;2023-11-21T06:02:11;21.30;;;15.32;;
73980;SDS011;62348;51.412;5.436;2023-11-21T06:04:36;17.50;;;14.20;;
73980;SDS011;62348;51.412;5.436;2023-11-21T06:07:02;17.75;;;14.65;;
73980;SDS011;62348;51.412;5.436;2023-11-21T06:09:27;18.38;;;14.98;;
73980;SDS011;62348;51.412;5.436;2023-11-21T06:11:53;21.13;;;14.50;;
73980;SDS011;62348;51.412;5.436;2023-11-21T06:14:18;21.65;;;15.35;;
73980;SDS011;62348;51.412;5.436;2023-11-21T06:16:43;22.00;;;14.55;;
73980;SDS011;62348;51.412;5.436;2023-11-21T06:19:10;19.58;;;14.23;;
73980;SDS011;62348;51.412;5.436;2023-11-21T06:21:36;18.55;;;14.45;;
73980;SDS011;62348;51.412;5.436;2023-11-21T06:24:01;18.02;;;14.95;;
73980;SDS011;62348;51.412;5.436;2023-11-21T06:26:26;22.33;;;16.48;;
73980;SDS011;62348;51.412;5.436;2023-11-21T06:28:52;17.55;;;14.80;;
73980;SDS011;62348;51.412;5.436;2023-11-21T06:31:18;25.65;;;16.35;;
73980;SDS011;62348;51.412;5.436;2023-11-21T06:33:44;21.38;;;16.02;;
73980;SDS011;62348;51.412;5.436;2023-11-21T06:36:09;23.20;;;14.77;;
73980;SDS011;62348;51.412;5.436;2023-11-21T06:38:36;23.58;;;16.80;;
73980;SDS011;62348;51.412;5.436;2023-11-21T06:41:02;25.77;;;16.73;;
73980;SDS011;62348;51.412;5.436;2023-11-21T06:43:29;27.25;;;16.85;;
73980;SDS011;62348;51.412;5.436;2023-11-21T06:45:56;27.70;;;16.92;;
73980;SDS011;62348;51.412;5.436;2023-11-21T06:48:22;23.60;;;16.98;;
73980;SDS011;62348;51.412;5.436;2023-11-21T06:50:47;29.92;;;17.50;;
73980;SDS011;62348;51.412;5.436;2023-11-21T06:53:12;30.48;;;17.98;;
73980;SDS011;62348;51.412;5.436;2023-11-21T06:55:38;29.77;;;18.42;;
73980;SDS011;62348;51.412;5.436;2023-11-21T06:58:04;35.50;;;19.55;;
73980;SDS011;62348;51.412;5.436;2023-11-21T07:00:30;38.65;;;19.83;;
73980;SDS011;62348;51.412;5.436;2023-11-21T07:02:55;40.53;;;20.58;;
73980;SDS011;62348;51.412;5.436;2023-11-21T07:05:21;37.53;;;20.42;;
73980;SDS011;62348;51.412;5.436;2023-11-21T07:07:47;39.45;;;19.15;;
73980;SDS011;62348;51.412;5.436;2023-11-21T07:10:14;44.40;;;21.40;;
73980;SDS011;62348;51.412;5.436;2023-11-21T07:12:39;46.40;;;21.08;;
73980;SDS011;62348;51.412;5.436;2023-11-21T07:15:05;41.47;;;21.05;;
73980;SDS011;62348;51.412;5.436;2023-11-21T07:17:34;34.47;;;19.65;;
73980;SDS011;62348;51.412;5.436;2023-11-21T07:20:00;40.38;;;20.30;;
73980;SDS011;62348;51.412;5.436;2023-11-21T07:22:29;44.72;;;21.48;;
73980;SDS011;62348;51.412;5.436;2023-11-21T07:24:55;43.40;;;21.27;;
73980;SDS011;62348;51.412;5.436;2023-11-21T07:27:23;44.80;;;20.33;;
73980;SDS011;62348;51.412;5.436;2023-11-21T07:29:49;43.55;;;20.23;;
73980;SDS011;62348;51.412;5.436;2023-11-21T07:32:14;46.78;;;20.65;;
73980;SDS011;62348;51.412;5.436;2023-11-21T07:34:40;39.05;;;20.67;;
73980;SDS011;62348;51.412;5.436;2023-11-21T07:37:06;45.50;;;21.15;;
73980;SDS011;62348;51.412;5.436;2023-11-21T07:39:32;43.75;;;21.30;;
73980;SDS011;62348;51.412;5.436;2023-11-21T07:41:57;44.45;;;23.65;;
73980;SDS011;62348;51.412;5.436;2023-11-21T07:44:23;44.10;;;22.30;;
73980;SDS011;62348;51.412;5.436;2023-11-21T07:46:48;45.40;;;20.63;;
73980;SDS011;62348;51.412;5.436;2023-11-21T07:49:14;48.75;;;20.05;;
73980;SDS011;62348;51.412;5.436;2023-11-21T07:51:41;45.83;;;22.17;;
73980;SDS011;62348;51.412;5.436;2023-11-21T07:54:07;43.10;;;21.00;;
73980;SDS011;62348;51.412;5.436;2023-11-21T07:56:32;49.13;;;22.67;;
73980;SDS011;62348;51.412;5.436;2023-11-21T07:58:58;56.90;;;24.38;;
73980;SDS011;62348;51.412;5.436;2023-11-21T08:01:23;52.17;;;25.83;;
73980;SDS011;62348;51.412;5.436;2023-11-21T08:03:49;52.05;;;25.52;;
73980;SDS011;62348;51.412;5.436;2023-11-21T08:06:17;47.15;;;24.63;;
73980;SDS011;62348;51.412;5.436;2023-11-21T08:08:42;47.72;;;24.67;;
73980;SDS011;62348;51.412;5.436;2023-11-21T08:11:08;55.83;;;24.52;;
73980;SDS011;62348;51.412;5.436;2023-11-21T08:13:35;61.97;;;25.92;;
73980;SDS011;62348;51.412;5.436;2023-11-21T08:16:00;49.30;;;25.52;;
73980;SDS011;62348;51.412;5.436;2023-11-21T08:18:29;59.15;;;26.60;;
73980;SDS011;62348;51.412;5.436;2023-11-21T08:20:55;56.45;;;25.88;;
73980;SDS011;62348;51.412;5.436;2023-11-21T08:23:21;54.35;;;26.02;;
73980;SDS011;62348;51.412;5.436;2023-11-21T08:25:50;47.85;;;23.85;;
73980;SDS011;62348;51.412;5.436;2023-11-21T08:28:16;51.42;;;26.27;;
73980;SDS011;62348;51.412;5.436;2023-11-21T08:30:42;54.72;;;25.30;;
73980;SDS011;62348;51.412;5.436;2023-11-21T08:33:07;51.63;;;23.70;;
73980;SDS011;62348;51.412;5.436;2023-11-21T08:35:38;45.58;;;22.70;;
73980;SDS011;62348;51.412;5.436;2023-11-21T08:38:04;53.63;;;25.92;;
73980;SDS011;62348;51.412;5.436;2023-11-21T08:40:30;55.30;;;26.42;;
73980;SDS011;62348;51.412;5.436;2023-11-21T08:42:55;51.47;;;24.20;;
73980;SDS011;62348;51.412;5.436;2023-11-21T08:45:24;51.08;;;24.98;;
73980;SDS011;62348;51.412;5.436;2023-11-21T08:47:51;52.28;;;25.80;;
73980;SDS011;62348;51.412;5.436;2023-11-21T08:50:16;50.88;;;26.02;;
73980;SDS011;62348;51.412;5.436;2023-11-21T08:52:42;56.17;;;26.35;;
73980;SDS011;62348;51.412;5.436;2023-11-21T08:55:08;54.60;;;26.50;;
73980;SDS011;62348;51.412;5.436;2023-11-21T08:57:37;56.45;;;27.23;;
73980;SDS011;62348;51.412;5.436;2023-11-21T09:00:03;52.28;;;27.05;;
73980;SDS011;62348;51.412;5.436;2023-11-21T09:02:32;57.13;;;28.15;;
73980;SDS011;62348;51.412;5.436;2023-11-21T09:05:02;57.38;;;29.92;;
73980;SDS011;62348;51.412;5.436;2023-11-21T09:07:29;58.65;;;28.17;;
73980;SDS011;62348;51.412;5.436;2023-11-21T09:09:54;56.25;;;27.38;;
73980;SDS011;62348;51.412;5.436;2023-11-21T09:12:20;56.25;;;29.13;;
73980;SDS011;62348;51.412;5.436;2023-11-21T09:14:46;56.97;;;27.90;;
73980;SDS011;62348;51.412;5.436;2023-11-21T09:17:12;58.70;;;27.67;;
73980;SDS011;62348;51.412;5.436;2023-11-21T09:19:39;64.80;;;29.52;;
73980;SDS011;62348;51.412;5.436;2023-11-21T09:22:04;63.08;;;29.75;;
73980;SDS011;62348;51.412;5.436;2023-11-21T09:24:30;64.88;;;29.20;;
73980;SDS011;62348;51.412;5.436;2023-11-21T09:26:56;57.65;;;28.92;;
73980;SDS011;62348;51.412;5.436;2023-11-21T09:29:22;59.53;;;28.88;;
73980;SDS011;62348;51.412;5.436;2023-11-21T09:31:47;56.25;;;27.17;;
73980;SDS011;62348;51.412;5.436;2023-11-21T09:34:16;66.28;;;27.60;;
73980;SDS011;62348;51.412;5.436;2023-11-21T09:36:44;62.90;;;31.30;;
73980;SDS011;62348;51.412;5.436;2023-11-21T09:39:10;64.13;;;29.83;;
73980;SDS011;62348;51.412;5.436;2023-11-21T09:41:50;64.50;;;30.15;;
73980;SDS011;62348;51.412;5.436;2023-11-21T09:44:22;59.80;;;27.95;;
73980;SDS011;62348;51.412;5.436;2023-11-21T09:46:54;54.33;;;29.05;;
73980;SDS011;62348;51.412;5.436;2023-11-21T09:49:24;61.78;;;28.17;;
73980;SDS011;62348;51.412;5.436;2023-11-21T09:51:51;60.10;;;28.60;;
73980;SDS011;62348;51.412;5.436;2023-11-21T09:54:23;59.17;;;28.92;;
73980;SDS011;62348;51.412;5.436;2023-11-21T09:56:50;62.38;;;30.38;;
73980;SDS011;62348;51.412;5.436;2023-11-21T09:59:15;57.28;;;28.98;;
73980;SDS011;62348;51.412;5.436;2023-11-21T10:01:41;64.00;;;29.35;;
73980;SDS011;62348;51.412;5.436;2023-11-21T10:04:11;56.22;;;28.60;;
73980;SDS011;62348;51.412;5.436;2023-11-21T10:06:40;53.15;;;28.80;;
73980;SDS011;62348;51.412;5.436;2023-11-21T10:09:11;65.25;;;30.75;;
73980;SDS011;62348;51.412;5.436;2023-11-21T10:11:43;66.00;;;30.45;;
73980;SDS011;62348;51.412;5.436;2023-11-21T10:14:12;51.47;;;26.50;;
73980;SDS011;62348;51.412;5.436;2023-11-21T10:16:39;56.58;;;27.00;;
73980;SDS011;62348;51.412;5.436;2023-11-21T10:19:05;53.92;;;26.85;;
73980;SDS011;62348;51.412;5.436;2023-11-21T10:21:34;64.32;;;26.13;;
73980;SDS011;62348;51.412;5.436;2023-11-21T10:24:00;52.20;;;27.58;;
73980;SDS011;62348;51.412;5.436;2023-11-21T10:26:28;55.00;;;26.60;;
73980;SDS011;62348;51.412;5.436;2023-11-21T10:28:59;57.20;;;28.35;;
73980;SDS011;62348;51.412;5.436;2023-11-21T10:31:32;57.28;;;26.85;;
73980;SDS011;62348;51.412;5.436;2023-11-21T10:34:12;49.03;;;26.38;;
73980;SDS011;62348;51.412;5.436;2023-11-21T10:36:41;52.72;;;25.42;;
73980;SDS011;62348;51.412;5.436;2023-11-21T10:39:07;47.92;;;26.58;;
73980;SDS011;62348;51.412;5.436;2023-11-21T10:41:34;50.47;;;25.20;;
73980;SDS011;62348;51.412;5.436;2023-11-21T10:44:00;50.17;;;25.40;;
73980;SDS011;62348;51.412;5.436;2023-11-21T10:46:29;51.30;;;25.15;;
73980;SDS011;62348;51.412;5.436;2023-11-21T10:48:55;47.95;;;25.10;;
73980;SDS011;62348;51.412;5.436;2023-11-21T10:51:21;47.88;;;23.92;;
73980;SDS011;62348;51.412;5.436;2023-11-21T10:53:47;48.80;;;24.30;;
73980;SDS011;62348;51.412;5.436;2023-11-21T10:56:15;48.00;;;24.63;;
73980;SDS011;62348;51.412;5.436;2023-11-21T10:58:45;55.63;;;25.05;;
73980;SDS011;62348;51.412;5.436;2023-11-21T11:01:10;43.72;;;23.00;;
73980;SDS011;62348;51.412;5.436;2023-11-21T11:03:37;56.05;;;24.73;;
73980;SDS011;62348;51.412;5.436;2023-11-21T11:06:04;36.83;;;21.23;;
73980;SDS011;62348;51.412;5.436;2023-11-21T11:08:32;45.35;;;21.95;;
73980;SDS011;62348;51.412;5.436;2023-11-21T11:11:00;43.10;;;21.85;;
73980;SDS011;62348;51.412;5.436;2023-11-21T11:13:25;38.08;;;20.45;;
73980;SDS011;62348;51.412;5.436;2023-11-21T11:15:51;43.80;;;22.45;;
73980;SDS011;62348;51.412;5.436;2023-11-21T11:18:24;46.42;;;22.88;;
73980;SDS011;62348;51.412;5.436;2023-11-21T11:20:50;37.88;;;20.50;;
73980;SDS011;62348;51.412;5.436;2023-11-21T11:28:55;43.40;;;21.15;;
73980;SDS011;62348;51.412;5.436;2023-11-21T11:31:37;44.03;;;20.13;;
73980;SDS011;62348;51.412;5.436;2023-11-21T11:37:02;34.50;;;18.33;;
73980;SDS011;62348;51.412;5.436;2023-11-21T11:39:36;33.97;;;19.60;;
73980;SDS011;62348;51.412;5.436;2023-11-21T11:42:17;32.25;;;17.63;;
73980;SDS011;62348;51.412;5.436;2023-11-21T11:47:21;31.63;;;18.48;;
73980;SDS011;62348;51.412;5.436;2023-11-21T11:52:51;32.60;;;16.55;;
73980;SDS011;62348;51.412;5.436;2023-11-21T11:55:20;32.47;;;17.15;;
73980;SDS011;62348;51.412;5.436;2023-11-21T11:57:47;26.83;;;14.77;;
73980;SDS011;62348;51.412;5.436;2023-11-21T12:00:20;27.35;;;15.02;;
73980;SDS011;62348;51.412;5.436;2023-11-21T12:02:54;32.28;;;16.02;;
73980;SDS011;62348;51.412;5.436;2023-11-21T12:05:22;29.85;;;17.30;;
73980;SDS011;62348;51.412;5.436;2023-11-21T12:07:49;27.50;;;15.68;;
73980;SDS011;62348;51.412;5.436;2023-11-21T12:10:19;29.90;;;15.57;;
73980;SDS011;62348;51.412;5.436;2023-11-21T12:15:20;25.25;;;14.27;;
73980;SDS011;62348;51.412;5.436;2023-11-21T12:17:47;27.73;;;14.63;;
73980;SDS011;62348;51.412;5.436;2023-11-21T12:20:14;24.30;;;13.75;;
73980;SDS011;62348;51.412;5.436;2023-11-21T12:22:44;28.77;;;15.50;;
73980;SDS011;62348;51.412;5.436;2023-11-21T12:25:13;25.58;;;15.15;;
73980;SDS011;62348;51.412;5.436;2023-11-21T12:27:41;26.52;;;15.00;;
73980;SDS011;62348;51.412;5.436;2023-11-21T12:30:08;28.52;;;16.23;;
73980;SDS011;62348;51.412;5.436;2023-11-21T12:32:38;28.23;;;15.23;;
73980;SDS011;62348;51.412;5.436;2023-11-21T12:35:08;27.30;;;15.50;;
73980;SDS011;62348;51.412;5.436;2023-11-21T12:37:38;25.98;;;15.63;;
73980;SDS011;62348;51.412;5.436;2023-11-21T12:40:05;26.70;;;16.30;;
73980;SDS011;62348;51.412;5.436;2023-11-21T12:42:32;28.85;;;15.80;;
73980;SDS011;62348;51.412;5.436;2023-11-21T12:47:46;33.00;;;18.05;;
73980;SDS011;62348;51.412;5.436;2023-11-21T12:50:20;34.30;;;19.55;;
73980;SDS011;62348;51.412;5.436;2023-11-21T12:52:51;36.63;;;19.48;;
73980;SDS011;62348;51.412;5.436;2023-11-21T12:55:19;37.08;;;19.52;;
73980;SDS011;62348;51.412;5.436;2023-11-21T12:57:50;41.22;;;21.13;;
73980;SDS011;62348;51.412;5.436;2023-11-21T13:00:19;46.83;;;21.65;;
73980;SDS011;62348;51.412;5.436;2023-11-21T13:02:55;39.38;;;20.23;;
73980;SDS011;62348;51.412;5.436;2023-11-21T13:05:27;39.03;;;20.73;;
73980;SDS011;62348;51.412;5.436;2023-11-21T13:07:57;39.80;;;19.92;;
73980;SDS011;62348;51.412;5.436;2023-11-21T13:10:27;38.78;;;21.00;;
73980;SDS011;62348;51.412;5.436;2023-11-21T13:12:59;42.10;;;21.10;;
73980;SDS011;62348;51.412;5.436;2023-11-21T13:15:30;36.13;;;20.17;;
73980;SDS011;62348;51.412;5.436;2023-11-21T13:17:57;41.38;;;19.17;;
73980;SDS011;62348;51.412;5.436;2023-11-21T13:20:23;32.33;;;18.45;;
73980;SDS011;62348;51.412;5.436;2023-11-21T13:22:52;37.55;;;20.25;;
73980;SDS011;62348;51.412;5.436;2023-11-21T13:25:29;35.20;;;18.85;;
73980;SDS011;62348;51.412;5.436;2023-11-21T13:27:56;31.90;;;18.77;;
73980;SDS011;62348;51.412;5.436;2023-11-21T13:30:23;30.17;;;18.83;;
73980;SDS011;62348;51.412;5.436;2023-11-21T13:32:52;31.33;;;18.02;;
73980;SDS011;62348;51.412;5.436;2023-11-21T13:35:22;29.73;;;16.42;;
73980;SDS011;62348;51.412;5.436;2023-11-21T13:37:56;34.78;;;19.52;;
73980;SDS011;62348;51.412;5.436;2023-11-21T13:40:25;30.10;;;18.73;;
73980;SDS011;62348;51.412;5.436;2023-11-21T13:42:55;30.10;;;17.45;;
73980;SDS011;62348;51.412;5.436;2023-11-21T13:47:51;28.85;;;16.02;;
73980;SDS011;62348;51.412;5.436;2023-11-21T13:50:19;30.60;;;18.05;;
73980;SDS011;62348;51.412;5.436;2023-11-21T13:52:51;33.95;;;18.10;;
73980;SDS011;62348;51.412;5.436;2023-11-21T13:55:18;32.20;;;18.40;;
73980;SDS011;62348;51.412;5.436;2023-11-21T13:57:44;34.03;;;18.23;;
73980;SDS011;62348;51.412;5.436;2023-11-21T14:00:14;29.17;;;17.25;;
73980;SDS011;62348;51.412;5.436;2023-11-21T14:03:06;27.48;;;16.40;;
73980;SDS011;62348;51.412;5.436;2023-11-21T14:05:42;30.73;;;17.42;;
73980;SDS011;62348;51.412;5.436;2023-11-21T14:08:09;31.75;;;18.27;;
73980;SDS011;62348;51.412;5.436;2023-11-21T14:10:37;25.80;;;17.25;;
73980;SDS011;62348;51.412;5.436;2023-11-21T14:13:08;31.70;;;16.63;;
73980;SDS011;62348;51.412;5.436;2023-11-21T14:15:38;27.05;;;17.55;;
73980;SDS011;62348;51.412;5.436;2023-11-21T14:18:11;29.52;;;18.42;;
73980;SDS011;62348;51.412;5.436;2023-11-21T14:20:42;27.25;;;17.05;;
73980;SDS011;62348;51.412;5.436;2023-11-21T14:23:08;31.08;;;17.45;;
73980;SDS011;62348;51.412;5.436;2023-11-21T14:25:34;29.67;;;17.23;;
73980;SDS011;62348;51.412;5.436;2023-11-21T14:27:59;32.60;;;18.60;;
73980;SDS011;62348;51.412;5.436;2023-11-21T14:30:25;31.50;;;18.58;;
73980;SDS011;62348;51.412;5.436;2023-11-21T14:32:51;29.05;;;18.50;;
73980;SDS011;62348;51.412;5.436;2023-11-21T14:35:16;25.50;;;16.52;;
73980;SDS011;62348;51.412;5.436;2023-11-21T14:37:42;29.02;;;16.95;;
73980;SDS011;62348;51.412;5.436;2023-11-21T14:40:08;29.05;;;16.65;;
73980;SDS011;62348;51.412;5.436;2023-11-21T14:42:34;31.35;;;16.95;;